Time;durP1;ratioP1;P1;durP2;ratioP2;P2;SDS_P1;SDS_P2;PMS_P1;PMS_P2;Temp;Humidity;BMP_temperature;BMP_pressure;BME280_temperature;BME280_humidity;BME280_pressure;Samples;Min_cycle;Max_cycle;Signal;HPM_P1;HPM_P2
2022/05/16 00:01:04;;;;;;;;;2.25;2.25;;;;;23.27;50.66;100514.31;5094366;27;45837;-80
2022/05/16 00:03:30;;;;;;;;;4.25;3.25;;;;;23.32;51.16;100527.13;5095026;27;45634;-80
2022/05/16 00:05:55;;;;;;;;;3.00;2.75;;;;;23.33;50.65;100548.28;5094567;27;45647;-80
2022/05/16 00:08:20;;;;;;;;;3.00;3.00;;;;;23.33;51.36;100556.31;5094478;27;46561;-81
2022/05/16 00:10:46;;;;;;;;;3.75;3.00;;;;;23.25;52.44;100529.72;5094528;27;45722;-80
2022/05/16 00:13:11;;;;;;;;;5.75;5.00;;;;;23.25;52.87;100556.47;5094594;27;45662;-81
2022/05/16 00:15:37;;;;;;;;;3.00;3.00;;;;;23.23;53.23;100555.81;5093859;27;46775;-82
2022/05/16 00:21:23;;;;;;;;;3.25;3.25;;;;;23.05;55.32;100539.41;5097689;27;45710;-81
2022/05/16 00:23:49;;;;;;;;;7.25;7.00;;;;;22.96;54.49;100513.84;5098078;27;45687;-81
2022/05/16 00:26:14;;;;;;;;;6.00;5.25;;;;;22.93;55.02;100508.88;5113071;27;45976;-81
2022/05/16 00:28:40;;;;;;;;;12.00;10.50;;;;;22.90;55.46;100517.25;5097310;27;45646;-81
2022/05/16 00:31:05;;;;;;;;;5.00;4.00;;;;;22.88;54.94;100511.31;5096073;27;45583;-81
2022/05/16 00:36:52;;;;;;;;;4.50;3.25;;;;;22.85;55.07;100541.88;5085591;27;46144;-82
2022/05/16 00:39:20;;;;;;;;;3.00;3.00;;;;;22.83;55.17;100527.09;5097349;27;45832;-82
2022/05/16 00:41:46;;;;;;;;;4.25;3.00;;;;;22.84;55.72;100537.56;5097670;27;45850;-81
2022/05/16 00:44:12;;;;;;;;;3.50;3.50;;;;;22.81;56.15;100531.78;5097635;27;45670;-82
2022/05/16 00:46:37;;;;;;;;;5.00;4.25;;;;;22.75;55.51;100528.03;5095500;27;47540;-82
2022/05/16 00:49:07;;;;;;;;;5.00;4.00;;;;;22.77;56.15;100525.16;5097246;27;46247;-81
2022/05/16 00:51:37;;;;;;;;;4.00;3.50;;;;;22.73;56.06;100515.84;5097441;27;45707;-81
2022/05/16 00:54:10;;;;;;;;;3.50;3.00;;;;;22.67;56.28;100524.63;5097617;27;45464;-82
2022/05/16 00:56:36;;;;;;;;;3.75;3.00;;;;;22.58;56.49;100508.69;5096864;27;45620;-82
2022/05/16 00:59:02;;;;;;;;;4.00;4.00;;;;;22.60;55.96;100514.69;5097137;27;45615;-82
2022/05/16 01:07:37;;;;;;;;;5.00;4.75;;;;;22.52;56.76;100482.75;5096767;27;45661;-81
2022/05/16 01:10:04;;;;;;;;;5.50;3.00;;;;;22.47;56.32;100484.31;5097335;27;46125;-81
2022/05/16 01:12:35;;;;;;;;;3.75;2.75;;;;;22.43;56.17;100491.06;5095647;27;45757;-82
2022/05/16 01:15:06;;;;;;;;;4.50;4.00;;;;;22.39;56.86;100506.66;5097140;27;45569;-81
2022/05/16 01:17:31;;;;;;;;;3.00;3.00;;;;;22.34;56.35;100510.91;5096749;27;46537;-82
2022/05/16 01:19:57;;;;;;;;;6.25;5.00;;;;;22.28;57.21;100503.63;5096682;27;45808;-82
2022/05/16 01:22:25;;;;;;;;;4.00;4.00;;;;;22.30;56.73;100505.09;5096869;27;45591;-82
2022/05/16 01:24:56;;;;;;;;;4.00;4.00;;;;;22.29;56.88;100507.97;5096969;27;45803;-81
2022/05/16 01:27:22;;;;;;;;;3.25;2.50;;;;;22.15;56.58;100481.09;5096525;27;46691;-81
2022/05/16 01:29:49;;;;;;;;;4.00;4.00;;;;;22.25;56.11;100502.16;5096248;27;46421;-81
2022/05/16 01:32:14;;;;;;;;;5.25;4.00;;;;;22.12;56.93;100484.16;5097002;27;45887;-81
2022/05/16 01:34:40;;;;;;;;;4.75;4.00;;;;;22.15;56.86;100493.63;5096858;27;45526;-82
2022/05/16 01:37:06;;;;;;;;;4.00;4.00;;;;;22.17;56.49;100504.94;5095947;27;45544;-79
2022/05/16 01:39:32;;;;;;;;;4.00;4.00;;;;;22.10;57.06;100506.69;5112158;27;48318;-81
2022/05/16 01:41:57;;;;;;;;;5.00;5.00;;;;;22.17;56.66;100529.78;5096692;27;45509;-82
2022/05/16 01:44:22;;;;;;;;;4.25;4.25;;;;;22.13;57.15;100519.69;5096821;27;45533;-81
2022/05/16 01:46:48;;;;;;;;;7.00;4.50;;;;;22.05;57.38;100501.91;5096173;27;46374;-82
2022/05/16 01:52:35;;;;;;;;;5.00;4.75;;;;;22.04;57.22;100515.44;5096028;27;45636;-81
2022/05/16 01:55:00;;;;;;;;;5.75;5.00;;;;;22.00;57.27;100528.34;5096469;27;45738;-81
2022/05/16 01:57:26;;;;;;;;;4.00;4.00;;;;;21.93;57.46;100515.88;5096418;27;46722;-81
2022/05/16 01:59:51;;;;;;;;;5.25;4.00;;;;;21.96;57.36;100523.56;5096228;27;46197;-81
2022/05/16 02:02:17;;;;;;;;;7.00;6.00;;;;;21.93;57.25;100532.72;5096387;27;45555;-81
2022/05/16 02:08:04;;;;;;;;;6.75;5.75;;;;;21.87;57.69;100535.28;5096062;27;45607;-81
2022/05/16 02:10:30;;;;;;;;;6.25;5.00;;;;;21.78;57.61;100523.88;5096538;27;46547;-81
2022/05/16 02:12:57;;;;;;;;;4.50;4.50;;;;;21.84;57.61;100527.66;5094731;27;45818;-81
2022/05/16 02:15:23;;;;;;;;;4.75;4.75;;;;;21.81;57.57;100536.03;5096475;27;45542;-81
2022/05/16 02:17:49;;;;;;;;;6.25;5.00;;;;;21.68;58.15;100524.16;5094576;27;48823;-81
2022/05/16 02:20:15;;;;;;;;;5.00;5.00;;;;;21.69;58.36;100533.81;5094470;27;46943;-81
2022/05/16 02:25:26;;;;;;;;;6.25;6.00;;;;;21.65;57.87;100521.84;5095916;27;45883;-81
2022/05/16 02:27:52;;;;;;;;;6.00;5.50;;;;;21.67;58.16;100529.66;5095643;27;46670;-81
2022/05/16 02:30:23;;;;;;;;;8.75;8.75;;;;;21.58;58.54;100526.28;5095890;27;46069;-81
2022/05/16 02:32:49;;;;;;;;;7.25;6.75;;;;;21.60;57.99;100540.22;5095825;27;45656;-81
2022/05/16 02:35:15;;;;;;;;;6.00;6.00;;;;;21.53;58.21;100517.16;5094311;27;45523;-81
2022/05/16 02:37:41;;;;;;;;;6.00;6.00;;;;;21.57;58.48;100531.78;5095188;27;45808;-81
2022/05/16 02:40:07;;;;;;;;;5.50;5.50;;;;;21.58;58.47;100531.59;5094930;27;45651;-81
2022/05/16 02:42:33;;;;;;;;;8.25;7.00;;;;;21.54;58.42;100527.63;5095225;27;45690;-80
2022/05/16 02:44:58;;;;;;;;;7.00;6.75;;;;;21.51;58.41;100521.84;5095459;27;45605;-81
2022/05/16 02:47:24;;;;;;;;;6.25;6.00;;;;;21.51;57.97;100532.50;5095416;27;46746;-81
2022/05/16 02:53:11;;;;;;;;;9.00;7.25;;;;;21.49;58.18;100543.34;5095390;27;45636;-81
2022/05/16 02:55:37;;;;;;;;;7.00;5.25;;;;;21.51;58.87;100546.66;5093864;27;45796;-81
2022/05/16 02:58:06;;;;;;;;;8.25;7.75;;;;;21.40;58.60;100530.28;5095429;27;45544;-81
2022/05/16 03:00:31;;;;;;;;;10.50;9.25;;;;;21.42;58.84;100533.59;5095396;27;46032;-82
2022/05/16 03:02:57;;;;;;;;;9.50;9.50;;;;;21.39;58.73;100542.75;5095791;27;45647;-81
2022/05/16 03:08:44;;;;;;;;;11.25;9.75;;;;;21.26;59.01;100535.41;5095232;27;45653;-81
2022/05/16 03:11:10;;;;;;;;;11.00;9.75;;;;;21.20;59.21;100541.44;5095553;27;46551;-80
2022/05/16 03:13:35;;;;;;;;;9.75;9.75;;;;;21.15;59.64;100546.50;5095719;27;45518;-81
2022/05/16 03:16:02;;;;;;;;;10.50;10.00;;;;;21.13;59.91;100547.63;5094706;27;45492;-81
2022/05/16 03:18:29;;;;;;;;;11.50;11.50;;;;;21.07;59.81;100567.00;5096533;27;46637;-81
2022/05/16 03:20:55;;;;;;;;;10.75;9.75;;;;;20.99;60.18;100567.06;5097310;27;46111;-80
2022/05/16 03:23:21;;;;;;;;;11.25;11.00;;;;;20.87;60.66;100580.78;5095121;27;45571;-80
2022/05/16 03:25:47;;;;;;;;;11.00;10.75;;;;;20.86;60.91;100579.13;5095428;27;45568;-80
2022/05/16 03:28:12;;;;;;;;;11.25;10.50;;;;;20.77;60.46;100571.38;5094932;27;45555;-80
2022/05/16 03:30:39;;;;;;;;;13.00;13.00;;;;;20.74;60.41;100569.88;5095110;27;46245;-80
2022/05/16 03:33:05;;;;;;;;;10.00;9.50;;;;;20.71;60.97;100562.25;5095921;27;45721;-80
2022/05/16 03:42:04;;;;;;;;;12.75;11.00;;;;;20.58;61.05;100577.13;5095082;27;45891;-81
2022/05/16 03:44:29;;;;;;;;;15.00;13.25;;;;;20.61;61.28;100590.09;5095082;27;45524;-81
2022/05/16 03:46:55;;;;;;;;;13.50;12.50;;;;;20.60;61.25;100607.06;5095128;27;45810;-81
2022/05/16 03:52:42;;;;;;;;;11.75;11.25;;;;;20.58;61.49;100615.22;5096539;27;46113;-81
2022/05/16 03:55:14;;;;;;;;;14.00;13.00;;;;;20.61;61.85;100622.88;5098177;27;45644;-81
2022/05/16 03:57:41;;;;;;;;;15.25;13.25;;;;;20.53;61.43;100613.09;5098660;27;45868;-81
2022/05/16 04:00:09;;;;;;;;;13.00;11.75;;;;;20.56;61.44;100611.09;5098301;27;46822;-81
2022/05/16 04:02:37;;;;;;;;;14.50;14.25;;;;;20.52;61.38;100605.25;5098235;27;46028;-81
2022/05/16 04:08:24;;;;;;;;;13.50;13.00;;;;;20.50;61.82;100612.59;5098148;27;45586;-81
2022/05/16 04:10:49;;;;;;;;;12.75;11.75;;;;;20.48;61.94;100611.94;5098072;27;45601;-80
2022/05/16 04:13:14;;;;;;;;;14.25;14.00;;;;;20.48;62.09;100619.91;5098003;27;45550;-80
2022/05/16 04:15:40;;;;;;;;;1.50;0.00;;;;;20.52;62.04;100637.19;5098205;27;45618;-80
2022/05/16 04:18:05;;;;;;;;;13.75;12.50;;;;;20.43;62.09;100630.25;5098076;27;45863;-80
2022/05/16 04:23:52;;;;;;;;;13.75;13.50;;;;;20.42;62.74;100647.22;5097648;27;45934;-80
2022/05/16 04:26:18;;;;;;;;;15.25;14.25;;;;;20.38;62.57;100654.72;5097969;27;45562;-80
2022/05/16 04:28:43;;;;;;;;;14.50;13.00;;;;;20.38;62.34;100661.88;5098007;27;45740;-80
2022/05/16 04:31:09;;;;;;;;;11.25;11.25;;;;;20.39;62.59;100656.41;5097877;27;46498;-80
2022/05/16 04:33:35;;;;;;;;;16.25;15.50;;;;;20.39;62.56;100658.22;5097959;27;45668;-80
2022/05/16 04:39:22;;;;;;;;;19.00;17.50;;;;;20.26;62.99;100653.41;5092264;27;45700;-80
2022/05/16 04:44:36;;;;;;;;;15.25;14.50;;;;;20.39;63.15;100690.16;5097187;27;45772;-81
2022/05/16 04:47:02;;;;;;;;;17.00;15.00;;;;;20.32;62.89;100690.00;5097524;27;45713;-81
2022/05/16 04:49:28;;;;;;;;;18.50;16.00;;;;;20.33;63.14;100706.81;5097603;27;45677;-80
2022/05/16 04:51:53;;;;;;;;;19.00;18.00;;;;;20.37;63.18;100705.47;5097498;27;46930;-80
2022/05/16 04:54:19;;;;;;;;;16.25;15.00;;;;;20.29;63.03;100711.63;5095779;27;46923;-82
2022/05/16 04:56:46;;;;;;;;;15.00;15.00;;;;;20.28;63.03;100725.09;5097091;27;45454;-82
2022/05/16 04:59:13;;;;;;;;;15.50;14.25;;;;;20.39;63.44;100751.38;5097688;27;45607;-82
2022/05/16 05:01:38;;;;;;;;;20.25;18.25;;;;;20.36;63.28;100747.22;5097564;27;46661;-82
2022/05/16 05:04:04;;;;;;;;;18.00;16.25;;;;;20.30;63.60;100731.03;5097082;27;45674;-82
2022/05/16 05:15:19;;;;;;;;;21.50;16.75;;;;;20.30;63.38;100761.16;5096944;27;46250;-82
2022/05/16 05:17:45;;;;;;;;;18.50;17.00;;;;;20.30;63.40;100753.16;5097164;27;45670;-82
2022/05/16 05:20:14;;;;;;;;;19.00;18.25;;;;;20.31;63.17;100754.88;5097432;27;45576;-82
2022/05/16 05:22:45;;;;;;;;;18.00;17.00;;;;;20.22;63.22;100741.72;5097267;27;45927;-82
2022/05/16 05:25:17;;;;;;;;;22.50;20.25;;;;;20.21;63.07;100734.72;5096891;27;46073;-81
2022/05/16 05:27:45;;;;;;;;;21.50;19.00;;;;;20.30;63.33;100761.16;5096952;27;45709;-82
2022/05/16 05:30:14;;;;;;;;;19.25;18.50;;;;;20.19;63.57;100748.19;5096006;27;45884;-82
2022/05/16 05:32:40;;;;;;;;;7.00;6.00;;;;;20.23;63.42;100764.69;5097058;27;45681;-82
2022/05/16 05:35:06;;;;;;;;;19.75;19.25;;;;;20.20;63.46;100776.47;5096872;27;45968;-82
2022/05/16 05:37:32;;;;;;;;;23.00;20.25;;;;;20.17;63.36;100779.47;5096919;27;45707;-82
2022/05/16 05:40:00;;;;;;;;;20.50;18.50;;;;;20.09;63.73;100764.34;5095369;27;45763;-82
2022/05/16 05:42:29;;;;;;;;;20.00;18.00;;;;;20.13;63.79;100778.97;5094789;27;46490;-82
2022/05/16 05:44:55;;;;;;;;;20.75;18.75;;;;;20.02;63.54;100773.16;5096738;27;45557;-82
2022/05/16 05:47:21;;;;;;;;;20.25;20.00;;;;;20.06;63.48;100793.09;5096787;27;45580;-82
2022/05/16 05:49:47;;;;;;;;;24.25;21.75;;;;;20.13;63.38;100801.25;5096764;27;45551;-82
2022/05/16 05:55:33;;;;;;;;;22.25;19.50;;;;;20.25;63.31;100831.84;5096568;27;45755;-82
2022/05/16 05:57:59;;;;;;;;;17.25;17.00;;;;;20.28;63.12;100834.19;5096566;27;45512;-81
2022/05/16 06:00:24;;;;;;;;;21.75;19.25;;;;;20.28;63.26;100851.00;5096681;27;45699;-81
2022/05/16 06:02:50;;;;;;;;;23.00;21.75;;;;;20.32;63.01;100844.38;5096415;27;46509;-82
2022/05/16 06:05:18;;;;;;;;;19.50;18.25;;;;;20.35;63.28;100851.19;5096310;27;46170;-81
2022/05/16 06:08:05;;;;;;;;;18.50;18.50;;;;;20.37;62.83;100844.69;5096842;27;45714;-81
2022/05/16 06:11:06;;;;;;;;;;;;;;;;;;;;;
2022/05/16 06:13:32;;;;;;;;;20.50;19.50;;;;;20.31;62.44;100840.03;5052737;28;75331;-81
2022/05/16 06:15:57;;;;;;;;;24.75;21.00;;;;;20.42;62.32;100868.97;5056215;28;46246;-79
2022/05/16 06:18:23;;;;;;;;;18.50;17.50;;;;;20.42;62.92;100865.47;5060112;28;45677;-80
2022/05/16 06:20:48;;;;;;;;;18.75;17.50;;;;;20.43;62.40;100862.66;5061711;28;45803;-83
2022/05/16 06:23:14;;;;;;;;;20.50;19.50;;;;;20.34;62.11;100850.38;5061635;28;46508;-81
2022/05/16 06:25:42;;;;;;;;;21.75;18.25;;;;;20.39;62.45;100868.50;5061363;28;46234;-80
2022/05/16 06:28:39;;;;;;;;;18.75;17.00;;;;;20.34;62.28;100874.31;5060179;28;45856;-78
2022/05/16 06:34:19;;;;;;;;;;;;;;;;;;;;;
2022/05/16 06:36:45;;;;;;;;;20.50;18.25;;;;;20.22;62.30;100864.94;5015195;28;77293;-82
2022/05/16 06:39:10;;;;;;;;;21.75;18.50;;;;;20.35;62.17;100889.25;5019697;28;45575;-81
2022/05/16 06:41:35;;;;;;;;;20.50;19.25;;;;;20.38;62.35;100888.94;5020415;28;45769;-82
2022/05/16 06:44:02;;;;;;;;;18.50;18.25;;;;;20.39;62.15;100903.94;5017402;28;46729;-80
2022/05/16 06:46:27;;;;;;;;;19.50;18.50;;;;;20.32;62.27;100894.94;5016613;28;46115;-82
2022/05/16 06:48:54;;;;;;;;;19.00;17.50;;;;;20.33;62.17;100899.25;5020701;28;45599;-80
2022/05/16 06:51:19;;;;;;;;;16.25;16.00;;;;;20.37;62.11;100908.56;5038898;28;45731;-82
2022/05/16 06:53:45;;;;;;;;;17.25;16.25;;;;;20.42;61.85;100913.41;5060633;28;45733;-81
2022/05/16 06:56:10;;;;;;;;;18.25;17.25;;;;;20.42;61.98;100916.88;5060418;28;46210;-83
2022/05/16 06:58:36;;;;;;;;;20.50;17.75;;;;;20.44;61.51;100928.22;5060710;28;45668;-81
2022/05/16 07:01:02;;;;;;;;;22.00;19.25;;;;;20.44;61.60;100935.38;5060690;28;45784;-80
2022/05/16 07:03:27;;;;;;;;;18.50;16.75;;;;;20.38;61.06;100934.19;5043714;28;47310;-80
2022/05/16 07:05:53;;;;;;;;;18.75;16.75;;;;;20.45;61.24;100955.66;5043134;28;47041;-79
2022/05/16 07:08:20;;;;;;;;;17.00;14.75;;;;;20.37;61.13;100943.16;5097618;27;45542;-81
2022/05/16 07:10:48;;;;;;;;;14.25;14.25;;;;;20.44;60.34;100960.16;5103547;27;45592;-81
2022/05/16 07:13:14;;;;;;;;;12.50;12.50;;;;;20.43;60.10;100969.13;5101322;27;48293;-81
2022/05/16 07:15:41;;;;;;;;;15.25;13.75;;;;;20.40;59.66;100966.81;5103431;27;46119;-81
2022/05/16 07:18:07;;;;;;;;;17.00;17.00;;;;;20.30;60.19;100959.91;5102326;27;45503;-81
2022/05/16 07:20:32;;;;;;;;;16.25;14.00;;;;;20.38;59.99;100967.97;5102738;27;45685;-82
2022/05/16 07:29:03;;;;;;;;;14.50;14.25;;;;;20.41;59.67;100979.09;5102129;27;45728;-84
2022/05/16 07:31:29;;;;;;;;;14.75;13.75;;;;;20.40;59.94;100973.97;5104975;27;45729;-84
2022/05/16 07:33:55;;;;;;;;;15.50;14.25;;;;;20.49;59.59;100989.78;5108934;27;46777;-84
2022/05/16 07:36:20;;;;;;;;;12.50;12.25;;;;;20.51;59.58;100987.78;5103252;27;46256;-83
2022/05/16 07:38:47;;;;;;;;;15.75;15.25;;;;;20.57;59.23;100994.28;5103388;27;45538;-83
2022/05/16 07:41:13;;;;;;;;;15.75;14.75;;;;;20.65;59.79;100988.97;5104755;27;45680;-84
2022/05/16 07:43:39;;;;;;;;;16.00;14.75;;;;;20.73;59.62;101001.47;5103274;27;46603;-85
2022/05/16 07:46:05;;;;;;;;;16.00;14.25;;;;;20.74;59.11;100993.28;5102331;27;47020;-85
2022/05/16 07:48:31;;;;;;;;;15.75;14.75;;;;;20.78;59.29;100991.97;5103978;27;45608;-85
2022/05/16 07:50:57;;;;;;;;;14.75;13.75;;;;;20.83;58.92;100989.66;5102529;27;45670;-85
2022/05/16 07:56:44;;;;;;;;;9.00;8.75;;;;;20.90;57.46;100995.13;5104319;27;45938;-84
2022/05/16 07:59:10;;;;;;;;;8.00;7.75;;;;;20.96;57.00;101013.13;5102108;27;45593;-86
2022/05/16 08:01:37;;;;;;;;;14.25;12.50;;;;;20.93;56.81;101016.13;5103350;27;45651;-84
2022/05/16 08:04:05;;;;;;;;;8.75;7.25;;;;;20.84;56.75;101009.09;5101467;27;48512;-87
2022/05/16 08:06:30;;;;;;;;;11.50;9.75;;;;;20.86;56.28;101023.94;5103459;27;45391;-82
2022/05/16 08:11:40;;;;;;;;;12.25;9.50;;;;;20.80;56.07;101029.94;5100421;27;45516;-81
2022/05/16 08:14:06;;;;;;;;;10.50;9.00;;;;;20.79;55.96;101025.59;5102242;27;46482;-82
2022/05/16 08:16:32;;;;;;;;;10.25;9.00;;;;;20.77;56.02;101024.09;5100764;27;47308;-81
2022/05/16 08:18:57;;;;;;;;;8.75;8.75;;;;;20.77;55.88;101006.31;5100792;27;45707;-81
2022/05/16 08:21:23;;;;;;;;;9.25;8.25;;;;;20.76;55.73;101006.47;5100855;27;45521;-82
2022/05/16 08:27:11;;;;;;;;;7.50;6.75;;;;;20.76;55.41;101031.25;5102001;27;45767;-82
2022/05/16 08:29:36;;;;;;;;;9.00;8.00;;;;;20.70;55.22;101023.94;5102320;27;45507;-82
2022/05/16 08:32:03;;;;;;;;;7.00;6.00;;;;;20.74;54.87;101038.56;5102277;27;45795;-82
2022/05/16 08:34:29;;;;;;;;;7.75;7.75;;;;;20.73;55.16;101038.75;5100249;27;45598;-81
2022/05/16 08:40:01;;;;;;;;;9.25;9.25;;;;;20.67;55.24;101048.22;5102989;27;45805;-82
2022/05/16 08:42:53;;;;;;;;;8.25;7.50;;;;;20.73;55.00;101052.06;5105117;27;45628;-81
2022/05/16 08:45:22;;;;;;;;;11.00;9.75;;;;;20.74;55.00;101059.03;5105137;27;46415;-82
2022/05/16 08:48:03;;;;;;;;;8.50;7.75;;;;;20.76;54.88;101054.41;5105034;27;45871;-82
2022/05/16 08:50:34;;;;;;;;;6.75;6.75;;;;;20.74;54.94;101048.38;5105232;27;45675;-82
2022/05/16 08:53:05;;;;;;;;;7.00;7.00;;;;;20.76;55.05;101049.06;5105535;27;45624;-82
2022/05/16 08:55:51;;;;;;;;;9.25;8.25;;;;;20.87;54.93;101057.59;5104727;27;45663;-82
2022/05/16 08:58:24;;;;;;;;;8.00;7.00;;;;;20.82;54.58;101049.25;5105192;27;46510;-81
2022/05/16 09:00:57;;;;;;;;;7.00;7.00;;;;;20.92;54.69;101068.56;5105308;27;45713;-81
2022/05/16 09:03:47;;;;;;;;;6.75;6.75;;;;;20.97;54.93;101065.41;5105293;27;45459;-82
2022/05/16 09:06:18;;;;;;;;;8.50;8.00;;;;;21.02;55.27;101070.25;5103458;27;45726;-83
2022/05/16 09:09:14;;;;;;;;;8.25;6.75;;;;;21.04;55.68;101081.56;5102389;27;46565;-81
2022/05/16 09:11:45;;;;;;;;;9.75;9.25;;;;;21.07;55.89;101090.06;5102173;27;45467;-82
2022/05/16 09:14:52;;;;;;;;;11.25;9.00;;;;;21.06;56.10;101083.06;5101870;27;45609;-81
2022/05/16 09:17:34;;;;;;;;;8.00;8.00;;;;;21.15;55.87;101084.78;5101157;27;48173;-82
2022/05/16 09:20:02;;;;;;;;;8.50;8.50;;;;;21.18;56.17;101089.78;5102672;27;45625;-82
2022/05/16 09:25:52;;;;;;;;;11.75;9.75;;;;;21.25;56.30;101101.44;5099577;27;45605;-82
2022/05/16 09:28:34;;;;;;;;;10.25;9.00;;;;;21.24;56.19;101101.59;5102479;27;46509;-82
2022/05/16 09:31:10;;;;;;;;;10.50;9.75;;;;;21.19;56.35;101093.28;5102480;27;46219;-81
2022/05/16 09:33:43;;;;;;;;;11.75;10.75;;;;;21.22;56.19;101096.44;5101451;27;45592;-81
2022/05/16 09:36:12;;;;;;;;;10.00;9.25;;;;;21.27;56.40;101103.91;5098903;27;45884;-81
2022/05/16 09:42:40;;;;;;;;;10.00;8.75;;;;;21.29;56.35;101113.44;5094123;27;46145;-81
2022/05/16 09:45:22;;;;;;;;;12.50;9.75;;;;;21.27;56.29;101103.91;5100924;27;45659;-81
2022/05/16 09:47:47;;;;;;;;;9.00;9.00;;;;;21.28;56.06;101094.94;5101214;27;45584;-81
2022/05/16 09:50:24;;;;;;;;;13.25;10.75;;;;;21.28;56.31;101109.09;5101828;27;46442;-80
2022/05/16 09:56:26;;;;;;;;;10.00;9.00;;;;;21.30;55.88;101116.94;5097247;27;45584;-81
2022/05/16 09:59:04;;;;;;;;;7.75;7.75;;;;;21.32;55.54;101130.94;5098378;27;45853;-77
2022/05/16 10:01:40;;;;;;;;;11.00;9.75;;;;;21.25;55.30;101105.94;5096543;27;47362;-80
2022/05/16 10:04:12;;;;;;;;;13.25;10.25;;;;;21.32;55.67;101126.41;5098953;27;45685;-81
2022/05/16 10:06:41;;;;;;;;;9.00;8.50;;;;;21.32;55.55;101125.63;5098869;27;45505;-82
2022/05/16 10:12:32;;;;;;;;;11.75;10.25;;;;;21.38;56.23;101135.59;5098153;27;46070;-81
2022/05/16 10:14:59;;;;;;;;;14.25;13.50;;;;;21.40;55.93;101133.59;5099493;27;46097;-83
2022/05/16 10:17:32;;;;;;;;;11.25;9.00;;;;;21.36;56.12;101129.59;5101187;27;45713;-81
2022/05/16 10:20:03;;;;;;;;;11.50;11.25;;;;;21.42;56.06;101141.44;5101458;27;45628;-79
2022/05/16 10:22:30;;;;;;;;;11.25;10.25;;;;;21.34;56.19;101124.44;5097884;27;45908;-81
2022/05/16 10:24:57;;;;;;;;;13.50;11.25;;;;;21.40;55.96;101127.44;5097079;27;45920;-81
2022/05/16 10:27:38;;;;;;;;;11.75;11.25;;;;;21.46;56.13;101126.78;5097820;27;45678;-83
2022/05/16 10:30:20;;;;;;;;;13.50;10.75;;;;;21.48;56.00;101122.94;5100257;27;45481;-81
2022/05/16 10:35:40;;;;;;;;;10.25;9.25;;;;;21.64;55.72;101132.78;5102696;27;45670;-79
2022/05/16 10:38:22;;;;;;;;;11.25;9.00;;;;;21.74;55.78;101136.09;5103724;27;45650;-79
2022/05/16 10:40:56;;;;;;;;;11.25;9.75;;;;;21.82;55.10;101138.75;5101697;27;45625;-78
2022/05/16 10:44:00;;;;;;;;;10.00;10.00;;;;;21.91;54.60;101135.06;5098019;27;47621;-79
2022/05/16 10:46:32;;;;;;;;;11.50;11.00;;;;;21.97;54.83;101130.94;5097790;27;46425;-79
2022/05/16 10:49:03;;;;;;;;;11.25;10.00;;;;;21.96;54.14;101115.91;5097903;27;45571;-82
2022/05/16 10:51:33;;;;;;;;;10.50;9.25;;;;;22.12;54.29;101131.88;5097976;27;45633;-79
2022/05/16 10:54:10;;;;;;;;;9.75;9.00;;;;;22.15;53.85;101132.38;5097869;27;45666;-80
2022/05/16 10:56:50;;;;;;;;;9.50;9.00;;;;;22.10;53.92;101115.19;5097069;27;46235;-79
2022/05/16 10:59:56;;;;;;;;;9.00;8.75;;;;;22.26;53.62;101136.50;5096040;27;45643;-79
2022/05/16 11:02:24;;;;;;;;;8.50;8.50;;;;;22.31;53.54;101138.66;5098511;27;45775;-78
2022/05/16 11:05:09;;;;;;;;;8.50;7.75;;;;;22.37;52.58;101138.81;5100671;27;46568;-78
2022/05/16 11:11:10;;;;;;;;;8.25;8.00;;;;;22.43;51.56;101124.75;5097205;27;45644;-81
2022/05/16 11:13:45;;;;;;;;;8.00;8.00;;;;;22.42;52.66;101112.41;5096203;27;45631;-80
2022/05/16 11:16:13;;;;;;;;;8.00;7.00;;;;;22.59;52.53;101127.38;5097676;27;46968;-81
2022/05/16 11:18:49;;;;;;;;;8.75;8.00;;;;;22.66;52.45;101121.34;5099766;27;45734;-81
2022/05/16 11:21:36;;;;;;;;;8.75;8.75;;;;;22.72;52.33;101126.00;5098593;27;45593;-84
2022/05/16 11:27:30;;;;;;;;;8.75;8.50;;;;;22.89;51.08;101135.56;5096861;27;46017;-81
2022/05/16 11:30:21;;;;;;;;;9.00;8.75;;;;;22.95;50.78;101140.22;5099913;27;46469;-83
2022/05/16 11:33:02;;;;;;;;;8.75;7.50;;;;;22.94;50.76;101122.53;5100303;27;45746;-80
2022/05/16 11:35:41;;;;;;;;;8.00;7.75;;;;;22.98;50.90;101127.34;5102237;27;45765;-81
2022/05/16 11:38:13;;;;;;;;;7.00;6.00;;;;;23.04;50.64;101128.50;5100003;27;48419;-78
2022/05/16 11:40:59;;;;;;;;;9.00;7.00;;;;;22.99;50.86;101110.31;5098684;27;45694;-78
2022/05/16 11:43:26;;;;;;;;;5.50;5.50;;;;;23.14;49.41;101126.41;5095562;27;45753;-76
2022/05/16 11:46:31;;;;;;;;;7.50;7.00;;;;;23.17;49.08;101125.19;5095625;27;45423;-77
2022/05/16 11:49:16;;;;;;;;;4.75;4.75;;;;;23.21;48.69;101126.53;5095721;27;46876;-84
2022/05/16 11:51:50;;;;;;;;;5.00;4.25;;;;;23.22;48.92;101117.47;5096158;27;45893;-86
2022/05/16 11:54:20;;;;;;;;;5.25;4.25;;;;;23.23;48.87;101114.63;5096324;27;45532;-84
2022/05/16 12:02:33;;;;;;;;;8.25;7.25;;;;;23.40;49.26;101104.63;5095850;27;45854;-83
2022/05/16 12:05:02;;;;;;;;;6.75;6.00;;;;;23.44;48.84;101109.44;5096174;27;46084;-81
2022/05/16 12:07:32;;;;;;;;;5.50;5.00;;;;;23.46;47.70;101098.59;5098315;27;45554;-86
2022/05/16 12:10:09;;;;;;;;;5.50;5.00;;;;;23.49;47.93;101100.06;5097893;27;45647;-81
2022/05/16 12:12:40;;;;;;;;;6.25;6.25;;;;;23.47;48.11;101089.56;5098446;27;45823;-82
2022/05/16 12:15:24;;;;;;;;;6.75;6.75;;;;;23.60;48.22;101096.97;5099428;27;45635;-81
2022/05/16 12:17:54;;;;;;;;;4.00;3.75;;;;;23.61;47.50;101094.13;5098171;27;45511;-82
2022/05/16 12:20:34;;;;;;;;;3.00;3.00;;;;;23.67;46.85;101104.09;5097985;27;46645;-82
2022/05/16 12:26:27;;;;;;;;;5.00;4.00;;;;;23.79;47.17;101091.09;5097424;27;45747;-82
2022/05/16 12:29:08;;;;;;;;;4.75;3.50;;;;;23.87;46.57;101088.31;5097906;27;45826;-81
2022/05/16 12:31:45;;;;;;;;;3.25;3.00;;;;;23.96;46.63;101089.91;5095855;27;46680;-82
2022/05/16 12:34:35;;;;;;;;;3.00;3.00;;;;;23.98;46.51;101074.47;5097357;27;46407;-82
2022/05/16 12:37:05;;;;;;;;;3.00;2.00;;;;;24.16;45.60;101091.03;5096039;27;46069;-82
2022/05/16 12:43:07;;;;;;;;;3.00;3.00;;;;;24.40;45.11;101091.78;5088823;27;45671;-81
2022/05/16 12:46:11;;;;;;;;;2.00;2.00;;;;;24.50;44.86;101100.34;5096081;27;47050;-83
2022/05/16 12:48:48;;;;;;;;;4.50;3.00;;;;;24.59;44.73;101093.84;5097410;27;45682;-82
2022/05/16 12:51:40;;;;;;;;;2.50;2.00;;;;;24.67;44.70;101096.41;5097441;27;45659;-82
2022/05/16 12:57:41;;;;;;;;;3.75;3.00;;;;;24.75;44.78;101074.84;5097010;27;45909;-80
2022/05/16 13:00:09;;;;;;;;;3.00;2.75;;;;;24.93;44.53;101093.22;5097288;27;45719;-82
2022/05/16 13:02:56;;;;;;;;;3.50;2.75;;;;;24.98;44.42;101099.69;5097223;27;45479;-80
2022/05/16 13:05:59;;;;;;;;;2.25;2.00;;;;;25.05;44.25;101099.72;5099743;27;46499;-80
2022/05/16 13:08:33;;;;;;;;;2.75;2.25;;;;;25.11;44.26;101100.81;5034342;28;46111;-81
2022/05/16 13:11:11;;;;;;;;;2.00;2.00;;;;;25.14;44.39;101095.91;5034592;28;45579;-80
2022/05/16 13:13:47;;;;;;;;;3.00;3.00;;;;;25.15;44.41;101086.84;5034370;28;45862;-80
2022/05/16 13:16:24;;;;;;;;;3.00;3.00;;;;;25.20;44.17;101089.78;5016797;28;47826;-83
2022/05/16 13:18:56;;;;;;;;;2.00;2.00;;;;;25.21;43.18;101090.63;5034187;28;45937;-80
2022/05/16 13:21:32;;;;;;;;;2.75;2.50;;;;;25.14;43.34;101076.31;5033980;28;45775;-82
2022/05/16 13:23:58;;;;;;;;;4.25;4.00;;;;;25.17;43.01;101092.00;5033234;28;45719;-81
2022/05/16 13:29:24;;;;;;;;;3.00;2.00;;;;;25.11;42.88;101090.09;5033085;28;45682;-81
2022/05/16 13:31:54;;;;;;;;;2.50;2.25;;;;;25.05;42.60;101078.28;5033441;28;45614;-83
2022/05/16 13:34:34;;;;;;;;;3.00;3.00;;;;;25.07;42.67;101076.25;5033922;28;45697;-82
2022/05/16 13:37:01;;;;;;;;;3.00;3.00;;;;;25.06;42.59;101074.56;5033566;28;46514;-82
2022/05/16 13:39:27;;;;;;;;;2.25;2.00;;;;;25.09;42.94;101082.25;5033306;28;45854;-82
2022/05/16 13:42:00;;;;;;;;;3.25;2.75;;;;;25.11;42.88;101085.56;5033523;28;45646;-85
2022/05/16 13:44:37;;;;;;;;;2.00;2.00;;;;;25.13;42.97;101093.41;5058553;27;45804;-84